Time;durP1;ratioP1;P1;durP2;ratioP2;P2;SDS_P1;SDS_P2;PMS_P1;PMS_P2;Temp;Humidity;BMP_temperature;BMP_pressure;BME280_temperature;BME280_humidity;BME280_pressure;Samples;Min_cycle;Max_cycle;Signal;HPM_P1;HPM_P2
2022/02/05 00:01:44;;;;;;;;;;;;;;;;;;;;;
2022/02/05 00:04:07;;;;;;;1.30;1.20;;;3.40;99.90;;;;;;4989401;28;20454;-69
2022/02/05 00:06:36;;;;;;;1.17;1.07;;;3.40;99.90;;;;;;4981355;28;20230;-69
2022/02/05 00:09:30;;;;;;;4.53;1.60;;;3.50;99.90;;;;;;4994190;28;20501;-67
2022/02/05 00:14:44;;;;;;;1.37;1.30;;;3.40;99.90;;;;;;4984675;28;20465;-68
2022/02/05 00:41:54;;;;;;;1.97;1.40;;;3.30;99.90;;;;;;5009219;28;20470;-68
2022/02/05 00:44:20;;;;;;;3.00;1.73;;;3.30;99.90;;;;;;5008172;28;20456;-69
2022/02/05 00:46:48;;;;;;;1.97;1.20;;;3.20;99.90;;;;;;5008685;28;21041;-70
2022/02/05 00:49:14;;;;;;;2.13;1.93;;;3.20;99.90;;;;;;4998207;28;20245;-69
2022/02/05 00:51:52;;;;;;;1.87;1.27;;;3.20;99.90;;;;;;4990688;28;21061;-69
2022/02/05 00:54:21;;;;;;;1.60;1.13;;;3.20;99.90;;;;;;5003486;28;20897;-69
2022/02/05 00:59:15;;;;;;;1.40;1.20;;;3.20;99.90;;;;;;4990557;28;20544;-68
2022/02/05 01:01:42;;;;;;;4.63;1.63;;;3.20;99.90;;;;;;4992491;28;20276;-70
2022/02/05 01:04:08;;;;;;;1.63;1.23;;;3.20;99.90;;;;;;4984037;28;20881;-69
2022/02/05 01:06:34;;;;;;;5.10;1.60;;;3.20;99.90;;;;;;4994903;28;20480;-70
2022/02/05 01:09:05;;;;;;;1.53;1.37;;;3.20;99.90;;;;;;4990609;28;21000;-69
2022/02/05 01:11:32;;;;;;;2.53;0.90;;;3.20;99.90;;;;;;4972758;28;20469;-69
2022/02/05 01:13:59;;;;;;;5.10;1.47;;;3.20;99.90;;;;;;4988740;28;20519;-69
2022/02/05 01:16:36;;;;;;;2.27;1.50;;;3.10;99.90;;;;;;4989158;28;20457;-69
2022/02/05 01:19:02;;;;;;;4.13;1.17;;;3.10;99.90;;;;;;4989127;28;20456;-69
2022/02/05 01:24:04;;;;;;;5.73;1.20;;;3.20;99.90;;;;;;5011866;28;20274;-69
2022/02/05 01:26:36;;;;;;;3.70;1.73;;;3.10;99.90;;;;;;4994849;28;20481;-69
2022/02/05 01:29:16;;;;;;;2.80;1.30;;;3.20;99.90;;;;;;4991659;28;20457;-69
2022/02/05 01:31:48;;;;;;;1.93;1.20;;;3.20;99.90;;;;;;5008081;28;20511;-69
2022/02/05 01:39:32;;;;;;;2.13;1.27;;;3.20;99.90;;;;;;4990183;28;20221;-70
2022/02/05 01:53:05;;;;;;;2.30;1.37;;;3.30;99.90;;;;;;4993024;28;20461;-70
2022/02/05 02:14:32;;;;;;;3.03;1.20;;;3.10;99.90;;;;;;5002308;28;20460;-68
2022/02/05 02:17:41;;;;;;;1.83;1.27;;;3.10;99.90;;;;;;5000714;28;20507;-69
2022/02/05 02:30:18;;;;;;;1.30;1.20;;;3.10;99.90;;;;;;5003102;28;20214;-69
2022/02/05 02:32:50;;;;;;;1.63;0.97;;;3.10;99.90;;;;;;4991898;28;20476;-69
2022/02/05 02:35:21;;;;;;;2.33;1.50;;;3.10;99.90;;;;;;4975282;28;20460;-69
2022/02/05 02:37:54;;;;;;;1.50;1.33;;;3.10;99.90;;;;;;4995522;28;20539;-69
2022/02/05 02:40:40;;;;;;;1.63;1.50;;;3.10;99.90;;;;;;4994585;28;20449;-68
2022/02/05 02:43:14;;;;;;;1.67;1.40;;;3.00;99.90;;;;;;4974830;28;20515;-70
2022/02/05 02:45:41;;;;;;;10.03;1.57;;;3.10;99.90;;;;;;4989682;28;20468;-70
2022/02/05 02:48:07;;;;;;;2.60;1.63;;;3.00;99.90;;;;;;4990968;28;20515;-71
2022/02/05 02:56:24;;;;;;;1.40;1.30;;;2.90;99.90;;;;;;5007849;28;21009;-70
2022/02/05 02:58:48;;;;;;;3.53;1.53;;;2.80;99.90;;;;;;4986047;28;20450;-69
2022/02/05 03:01:18;;;;;;;5.03;1.80;;;2.70;99.90;;;;;;4984831;28;20511;-67
2022/02/05 03:03:44;;;;;;;1.43;1.33;;;2.80;99.90;;;;;;4991484;28;20469;-69
2022/02/05 03:06:10;;;;;;;3.57;1.57;;;2.80;99.90;;;;;;5002517;28;20459;-69
2022/02/05 03:08:36;;;;;;;2.77;2.03;;;2.80;99.90;;;;;;4990810;28;20457;-68
2022/02/05 03:11:02;;;;;;;1.63;1.47;;;2.80;99.90;;;;;;4990744;28;20225;-69
2022/02/05 03:13:29;;;;;;;1.70;1.60;;;2.80;99.90;;;;;;4991501;28;20234;-69
2022/02/05 03:15:55;;;;;;;1.80;1.67;;;2.80;99.90;;;;;;4990099;28;20520;-69
2022/02/05 03:21:19;;;;;;;1.37;1.27;;;2.80;99.90;;;;;;4957905;28;20507;-68
2022/02/05 03:23:45;;;;;;;1.63;1.40;;;2.80;99.90;;;;;;4995028;28;20881;-69
2022/02/05 03:26:10;;;;;;;1.57;1.47;;;2.80;99.90;;;;;;4990471;28;20640;-69
2022/02/05 03:28:37;;;;;;;3.40;1.83;;;2.80;99.90;;;;;;4990486;28;20225;-68
2022/02/05 03:31:03;;;;;;;2.10;1.67;;;2.80;99.90;;;;;;4987790;28;20457;-68
2022/02/05 03:33:29;;;;;;;4.37;1.80;;;2.80;99.90;;;;;;4993293;28;20837;-68
2022/02/05 03:35:54;;;;;;;1.73;1.33;;;2.90;99.90;;;;;;5009546;28;20228;-69
2022/02/05 03:38:20;;;;;;;1.43;0.93;;;2.90;99.90;;;;;;4985285;28;20220;-69
2022/02/05 03:40:46;;;;;;;4.50;2.13;;;2.90;99.90;;;;;;4991433;28;20217;-69
2022/02/05 03:43:12;;;;;;;3.53;1.67;;;2.90;99.90;;;;;;5001320;28;20221;-70
2022/02/05 03:45:37;;;;;;;5.53;2.33;;;2.80;99.90;;;;;;4997253;28;20230;-69
2022/02/05 03:48:05;;;;;;;2.37;1.73;;;2.80;99.90;;;;;;4962674;28;20246;-69
2022/02/05 03:50:57;;;;;;;3.80;1.83;;;2.80;99.90;;;;;;5001772;28;20765;-69
2022/02/05 03:53:29;;;;;;;2.80;1.80;;;2.70;99.90;;;;;;4989768;28;20468;-69
2022/02/05 03:55:55;;;;;;;2.07;1.63;;;2.70;99.90;;;;;;4989202;28;20477;-69
2022/02/05 03:58:21;;;;;;;2.00;1.63;;;2.70;99.90;;;;;;4978492;28;20493;-69
2022/02/05 04:00:46;;;;;;;2.43;1.57;;;2.60;99.90;;;;;;4994813;28;20221;-68
2022/02/05 04:03:13;;;;;;;2.20;1.80;;;2.70;99.90;;;;;;4977104;28;20280;-69
2022/02/05 04:05:39;;;;;;;2.70;1.50;;;2.70;99.90;;;;;;4983678;28;20219;-69
2022/02/05 04:08:08;;;;;;;1.77;1.67;;;2.70;99.90;;;;;;4989142;28;20533;-69
2022/02/05 04:10:43;;;;;;;4.50;1.73;;;2.80;99.90;;;;;;4989407;28;20229;-70
2022/02/05 04:18:45;;;;;;;1.50;1.40;;;2.90;99.90;;;;;;5010199;28;20538;-69
2022/02/05 04:21:11;;;;;;;2.27;1.57;;;2.90;99.90;;;;;;5009120;28;20488;-69
2022/02/05 04:23:38;;;;;;;1.40;1.30;;;2.90;99.90;;;;;;4994806;28;20345;-69
2022/02/05 04:26:03;;;;;;;4.50;2.13;;;2.80;99.90;;;;;;4989583;28;20221;-69
2022/02/05 04:28:30;;;;;;;3.03;1.73;;;2.80;99.90;;;;;;4990985;28;20449;-70
2022/02/05 04:30:56;;;;;;;1.83;1.70;;;2.80;99.90;;;;;;4997037;28;20549;-69
2022/02/05 04:33:22;;;;;;;10.13;2.00;;;2.80;99.90;;;;;;4991868;28;20232;-68
2022/02/05 04:35:48;;;;;;;2.97;1.73;;;2.80;99.90;;;;;;4985415;28;20226;-69
2022/02/05 04:38:15;;;;;;;3.03;1.90;;;2.80;99.90;;;;;;4986769;28;20237;-68
2022/02/05 04:40:52;;;;;;;2.00;1.67;;;2.80;99.90;;;;;;4994072;28;20250;-70
2022/02/05 05:04:22;;;;;;;;;;;;;;;;;;;;;
2022/02/05 05:19:28;;;;;;;4.60;2.20;;;2.80;99.90;;;;;;5012635;28;20236;-69
2022/02/05 05:21:59;;;;;;;3.33;1.20;;;2.70;99.90;;;;;;4977219;28;20941;-68
2022/02/05 05:24:26;;;;;;;2.40;1.90;;;2.70;99.90;;;;;;5016104;28;20870;-69
2022/02/05 05:26:52;;;;;;;2.60;2.00;;;2.70;99.90;;;;;;5011998;28;20977;-69
2022/02/05 05:29:19;;;;;;;2.57;2.30;;;2.60;99.90;;;;;;5000345;28;20998;-68
2022/02/05 05:31:44;;;;;;;2.27;2.00;;;2.60;99.90;;;;;;4973096;28;21024;-70
2022/02/05 05:34:10;;;;;;;9.37;2.50;;;2.60;99.90;;;;;;4995665;28;20504;-69
2022/02/05 05:36:36;;;;;;;2.27;1.70;;;2.60;99.90;;;;;;4992048;28;20225;-68
2022/02/05 05:39:02;;;;;;;2.10;1.70;;;2.60;99.90;;;;;;4992537;28;20722;-69
2022/02/05 05:41:30;;;;;;;4.83;2.33;;;2.60;99.90;;;;;;4980581;28;20264;-69
2022/02/05 05:46:45;;;;;;;3.10;2.07;;;2.60;99.90;;;;;;5002155;28;20455;-70
2022/02/05 05:49:18;;;;;;;;;;;;;;;;;;;;;
2022/02/05 05:52:07;;;;;;;2.10;1.90;;;2.50;99.90;;;;;;4998913;28;20475;-69
2022/02/05 05:54:42;;;;;;;2.60;1.77;;;2.50;99.90;;;;;;4991769;28;20469;-70
2022/02/05 05:57:08;;;;;;;5.53;2.30;;;2.50;99.90;;;;;;4989117;28;20454;-69
2022/02/05 05:59:34;;;;;;;7.10;2.30;;;2.40;99.90;;;;;;4984385;28;20457;-69
2022/02/05 06:02:00;;;;;;;4.40;2.47;;;2.40;99.90;;;;;;4977985;28;20457;-69
2022/02/05 06:04:26;;;;;;;2.70;2.17;;;2.40;99.90;;;;;;5002037;28;20229;-69
2022/02/05 06:06:52;;;;;;;3.30;2.30;;;2.50;99.90;;;;;;5012173;28;20832;-69
2022/02/05 06:09:17;;;;;;;4.50;2.00;;;2.50;99.90;;;;;;4994364;28;20295;-69
2022/02/05 06:11:43;;;;;;;3.47;2.67;;;2.50;99.90;;;;;;4998210;28;20234;-70
2022/02/05 06:14:09;;;;;;;3.00;2.27;;;2.50;99.90;;;;;;5007672;28;20221;-70
2022/02/05 06:16:36;;;;;;;3.43;2.23;;;2.50;99.90;;;;;;4983154;28;20626;-70
2022/02/05 06:19:02;;;;;;;4.63;2.30;;;2.50;99.90;;;;;;4991457;28;20305;-70
2022/02/05 06:21:27;;;;;;;5.83;2.60;;;2.50;99.90;;;;;;4971504;28;20537;-70
2022/02/05 06:23:54;;;;;;;2.30;2.00;;;2.40;99.90;;;;;;4989849;28;20240;-70
2022/02/05 06:26:20;;;;;;;3.93;2.03;;;2.40;99.90;;;;;;4995032;28;20229;-69
2022/02/05 06:28:46;;;;;;;3.63;2.10;;;2.50;99.90;;;;;;4996127;28;20466;-70
2022/02/05 06:31:11;;;;;;;7.63;2.30;;;2.50;99.90;;;;;;4956539;28;20229;-70
2022/02/05 06:33:37;;;;;;;2.43;1.80;;;2.60;99.90;;;;;;5009968;28;20275;-69
2022/02/05 06:36:03;;;;;;;2.40;1.80;;;2.60;99.90;;;;;;4995781;28;20225;-69
2022/02/05 06:38:29;;;;;;;2.03;1.80;;;2.70;99.90;;;;;;4991340;28;20229;-69
2022/02/05 06:40:54;;;;;;;2.93;1.87;;;2.70;99.90;;;;;;4995994;28;20515;-69
2022/02/05 06:43:20;;;;;;;7.00;3.57;;;2.80;99.90;;;;;;5010544;28;20308;-69
2022/02/05 06:45:46;;;;;;;2.37;2.17;;;2.80;99.90;;;;;;5002750;28;20244;-69
2022/02/05 06:48:13;;;;;;;4.10;1.73;;;2.80;99.90;;;;;;4987992;28;20237;-69
2022/02/05 06:50:39;;;;;;;3.57;2.90;;;2.90;99.90;;;;;;4990364;28;20228;-69
2022/02/05 06:53:04;;;;;;;4.03;2.53;;;2.90;99.90;;;;;;5008828;28;20456;-68
2022/02/05 06:55:30;;;;;;;3.73;2.67;;;2.90;99.90;;;;;;5010741;28;20221;-70
2022/02/05 06:57:56;;;;;;;2.80;2.30;;;2.90;99.90;;;;;;4998343;28;20210;-69
2022/02/05 07:00:21;;;;;;;2.17;1.93;;;3.00;99.90;;;;;;4992786;28;20360;-69
2022/02/05 07:02:47;;;;;;;7.20;2.60;;;3.00;99.90;;;;;;4993592;28;20221;-70
2022/02/05 07:05:13;;;;;;;5.23;3.03;;;3.00;99.90;;;;;;4972902;28;20731;-70
2022/02/05 07:07:40;;;;;;;2.73;2.53;;;3.00;99.90;;;;;;4989381;28;20214;-70
2022/02/05 07:10:07;;;;;;;7.87;3.07;;;3.00;99.90;;;;;;5001422;28;20218;-69
2022/02/05 07:12:40;;;;;;;2.90;2.40;;;3.10;99.90;;;;;;4986635;28;20823;-70
2022/02/05 07:15:15;;;;;;;2.67;1.93;;;3.10;99.90;;;;;;4980647;28;21020;-69
2022/02/05 07:30:52;;;;;;;5.27;3.13;;;3.10;99.90;;;;;;4991277;28;20893;-69
2022/02/05 07:33:18;;;;;;;4.77;3.00;;;3.10;99.90;;;;;;4983911;28;20468;-68
2022/02/05 07:35:43;;;;;;;3.70;3.40;;;3.10;99.90;;;;;;4996733;28;20210;-69
2022/02/05 07:38:09;;;;;;;3.20;2.90;;;3.10;99.90;;;;;;4983055;28;20740;-69
2022/02/05 07:40:35;;;;;;;2.43;2.23;;;3.10;99.90;;;;;;4971283;28;20227;-69
2022/02/05 07:43:01;;;;;;;7.53;2.40;;;3.10;99.90;;;;;;4971581;28;20225;-69
2022/02/05 07:45:27;;;;;;;2.90;2.50;;;3.10;99.90;;;;;;4982841;28;20290;-69
2022/02/05 07:47:53;;;;;;;6.13;3.03;;;3.10;99.90;;;;;;4986014;28;20230;-69
2022/02/05 07:50:19;;;;;;;3.33;2.37;;;3.10;99.90;;;;;;4974782;28;20225;-68
2022/02/05 07:52:44;;;;;;;2.40;2.07;;;3.10;99.90;;;;;;4980336;28;20971;-69
2022/02/05 07:55:10;;;;;;;2.50;2.23;;;3.20;99.90;;;;;;4971486;28;20672;-69
2022/02/05 07:57:36;;;;;;;7.47;2.70;;;3.20;99.90;;;;;;4969490;28;20267;-69
2022/02/05 08:00:04;;;;;;;7.13;2.80;;;3.20;99.90;;;;;;4976865;28;20248;-69
2022/02/05 08:02:38;;;;;;;3.30;3.00;;;3.20;99.90;;;;;;5000644;28;20619;-70
2022/02/05 08:05:04;;;;;;;5.07;3.10;;;3.20;99.90;;;;;;4991381;28;20461;-69
2022/02/05 08:07:30;;;;;;;5.93;3.87;;;3.20;99.90;;;;;;4971974;28;20218;-69
2022/02/05 08:10:00;;;;;;;;;;;;;;;;;;;;;
2022/02/05 08:12:22;;;;;;;8.57;3.10;;;3.20;99.90;;;;;;4997916;28;20269;-69
2022/02/05 08:14:51;;;;;;;5.60;3.60;;;3.20;99.90;;;;;;4988493;28;20221;-68
2022/02/05 08:17:24;;;;;;;5.77;4.07;;;3.20;99.90;;;;;;4998979;28;20457;-69
2022/02/05 08:19:50;;;;;;;3.93;3.43;;;3.20;99.90;;;;;;4987121;28;20457;-69
2022/02/05 08:22:17;;;;;;;3.87;3.30;;;3.20;99.90;;;;;;4985738;28;20525;-69
2022/02/05 08:24:42;;;;;;;11.77;6.80;;;3.30;99.90;;;;;;4988768;28;20479;-69
2022/02/05 08:27:09;;;;;;;34.13;13.70;;;3.30;99.90;;;;;;4973213;28;20453;-68
2022/02/05 08:29:38;;;;;;;24.57;12.53;;;3.30;99.90;;;;;;4989048;28;20775;-69
2022/02/05 08:32:04;;;;;;;29.77;12.30;;;3.30;99.90;;;;;;4987261;28;20882;-69
2022/02/05 08:34:30;;;;;;;21.73;11.10;;;3.30;99.90;;;;;;4986044;28;20548;-69
2022/02/05 08:36:58;;;;;;;21.80;8.60;;;3.30;99.90;;;;;;4985080;28;20537;-69
2022/02/05 08:39:24;;;;;;;14.63;7.50;;;3.40;99.90;;;;;;4979816;28;20231;-69
2022/02/05 08:41:50;;;;;;;9.30;5.70;;;3.40;99.90;;;;;;4987128;28;20466;-68
2022/02/05 08:44:15;;;;;;;15.97;5.80;;;3.40;99.90;;;;;;4985231;28;20956;-69
2022/02/05 08:46:41;;;;;;;7.70;5.17;;;3.40;99.90;;;;;;4987562;28;20232;-68
2022/02/05 08:49:07;;;;;;;8.20;5.43;;;3.50;99.90;;;;;;4984375;28;20237;-69
2022/02/05 08:51:33;;;;;;;5.43;4.33;;;3.50;99.90;;;;;;4969856;28;20237;-69
2022/02/05 08:54:00;;;;;;;5.37;4.40;;;3.50;99.90;;;;;;4995453;28;20320;-70
2022/02/05 08:56:26;;;;;;;7.03;3.97;;;3.50;99.90;;;;;;4992868;28;20456;-68
2022/02/05 08:58:54;;;;;;;12.83;4.90;;;3.60;99.90;;;;;;4991531;28;20465;-69
2022/02/05 09:01:26;;;;;;;9.93;3.87;;;3.60;99.90;;;;;;4992817;28;20896;-69
2022/02/05 09:04:22;;;;;;;5.10;2.67;;;3.60;99.90;;;;;;4998916;28;20493;-69
2022/02/05 09:06:49;;;;;;;3.23;2.93;;;3.60;99.90;;;;;;4993950;28;20496;-69
2022/02/05 09:10:05;;;;;;;4.30;3.90;;;3.70;99.90;;;;;;4988738;28;20556;-68
2022/02/05 09:16:56;;;;;;;5.07;3.53;;;3.70;99.90;;;;;;4981286;28;20751;-68
2022/02/05 09:19:21;;;;;;;3.43;2.90;;;3.80;99.90;;;;;;4997334;28;20453;-69
2022/02/05 09:21:47;;;;;;;3.70;3.20;;;3.80;99.90;;;;;;4962153;28;20998;-68
2022/02/05 09:24:13;;;;;;;9.10;3.20;;;3.80;99.90;;;;;;4986637;28;20222;-69
2022/02/05 09:26:43;;;;;;;5.37;2.83;;;3.90;99.90;;;;;;4986817;28;20222;-69
2022/02/05 09:29:14;;;;;;;2.50;2.30;;;3.90;99.90;;;;;;4963573;28;20225;-69
2022/02/05 09:31:40;;;;;;;4.90;2.53;;;3.90;99.90;;;;;;4984916;28;20461;-69
2022/02/05 09:34:06;;;;;;;2.73;2.40;;;4.00;99.90;;;;;;4986985;28;20469;-69
2022/02/05 09:36:35;;;;;;;6.77;2.73;;;4.00;99.90;;;;;;4980782;28;20897;-69
2022/02/05 09:39:01;;;;;;;4.53;2.60;;;4.00;99.90;;;;;;4987443;28;20453;-69
2022/02/05 09:41:27;;;;;;;3.43;2.23;;;4.00;99.90;;;;;;4983002;28;20464;-69
2022/02/05 09:43:54;;;;;;;3.87;2.20;;;4.10;99.90;;;;;;4971949;28;21958;-69
2022/02/05 09:46:21;;;;;;;4.87;2.57;;;4.10;99.90;;;;;;4993940;28;20300;-69
2022/02/05 09:48:49;;;;;;;10.73;3.40;;;4.20;99.90;;;;;;4980863;28;20461;-69
2022/02/05 09:51:18;;;;;;;3.97;3.13;;;4.30;99.90;;;;;;4982202;28;20541;-68
2022/02/05 09:53:49;;;;;;;4.67;3.43;;;4.30;99.90;;;;;;4998106;28;20873;-69
2022/02/05 09:56:15;;;;;;;13.23;6.97;;;4.40;99.90;;;;;;5001752;28;20549;-69
2022/02/05 09:58:41;;;;;;;32.63;18.17;;;4.50;99.90;;;;;;4961795;28;20537;-69
2022/02/05 10:01:42;;;;;;;32.33;18.10;;;4.60;99.90;;;;;;4984560;28;20537;-69
2022/02/05 10:04:05;;;;;;;13.70;8.50;;;4.70;99.90;;;;;;4984240;28;20226;-69
2022/02/05 10:06:40;;;;;;;6.10;4.90;;;4.80;99.90;;;;;;4988870;28;20460;-69
2022/02/05 10:09:06;;;;;;;11.23;4.53;;;4.90;99.90;;;;;;4985557;28;20455;-69
2022/02/05 10:11:50;;;;;;;4.33;2.53;;;5.00;99.90;;;;;;4965971;28;20473;-68
2022/02/05 10:14:27;;;;;;;2.90;2.50;;;5.20;99.90;;;;;;4985681;28;20257;-69
2022/02/05 10:16:57;;;;;;;3.80;2.60;;;5.20;99.90;;;;;;4984166;28;25537;-69
2022/02/05 10:19:24;;;;;;;2.30;2.10;;;5.30;99.90;;;;;;4978841;28;20453;-69
2022/02/05 10:22:06;;;;;;;2.67;2.47;;;5.30;99.90;;;;;;4985220;28;20461;-69
2022/02/05 10:24:32;;;;;;;3.30;2.27;;;5.40;99.90;;;;;;4984084;28;20460;-69
2022/02/05 10:26:58;;;;;;;4.77;2.10;;;5.40;99.90;;;;;;4990860;28;20445;-70
2022/02/05 10:29:25;;;;;;;6.20;2.47;;;5.50;99.90;;;;;;4989547;28;20225;-68
2022/02/05 10:32:12;;;;;;;4.90;1.97;;;5.50;99.90;;;;;;5011875;28;20473;-69
2022/02/05 10:34:59;;;;;;;2.20;2.10;;;5.50;99.90;;;;;;4984956;28;20453;-70
2022/02/05 10:37:29;;;;;;;8.40;2.70;;;5.60;99.90;;;;;;4989751;28;20543;-69
2022/02/05 10:45:11;;;;;;;10.20;6.73;;;5.90;99.90;;;;;;4980405;28;20449;-68
2022/02/05 10:47:49;;;;;;;8.97;6.33;;;6.00;99.90;;;;;;4997403;28;20499;-69
2022/02/05 10:50:24;;;;;;;13.43;5.70;;;6.10;99.90;;;;;;4975031;28;20229;-69
2022/02/05 10:52:59;;;;;;;6.43;4.70;;;6.10;99.90;;;;;;4990901;28;20539;-69
2022/02/05 10:55:42;;;;;;;8.17;4.30;;;6.20;99.90;;;;;;5008746;28;20464;-68
2022/02/05 10:58:19;;;;;;;4.07;3.30;;;6.30;99.90;;;;;;5011327;28;20454;-70
2022/02/05 11:05:57;;;;;;;6.90;2.37;;;6.60;99.90;;;;;;4989864;28;20245;-69
2022/02/05 11:08:24;;;;;;;1.77;1.67;;;6.60;99.90;;;;;;4989542;28;20484;-69
2022/02/05 11:21:18;;;;;;;4.30;2.47;;;6.90;99.90;;;;;;4988113;28;20460;-70
2022/02/05 11:23:50;;;;;;;8.40;4.10;;;6.90;99.90;;;;;;4988412;28;20539;-69
2022/02/05 11:26:20;;;;;;;13.37;5.67;;;6.90;99.90;;;;;;4991431;28;20446;-69
2022/02/05 11:28:52;;;;;;;24.10;9.97;;;6.90;99.90;;;;;;4991012;28;20492;-70
2022/02/05 11:31:33;;;;;;;45.67;20.50;;;6.90;99.90;;;;;;4980643;28;20481;-70
2022/02/05 11:34:37;;;;;;;34.03;15.83;;;7.00;99.90;;;;;;4974019;28;21033;-69
2022/02/05 11:37:06;;;;;;;14.90;8.60;;;7.20;99.90;;;;;;4992773;28;20534;-70
2022/02/05 11:39:53;;;;;;;7.43;3.40;;;7.20;99.90;;;;;;4990054;28;20540;-69
2022/02/05 11:42:28;;;;;;;5.33;2.83;;;7.10;99.90;;;;;;4989176;28;20838;-69
2022/02/05 11:45:19;;;;;;;4.40;3.70;;;7.10;99.90;;;;;;4999809;28;20452;-68
2022/02/05 11:47:45;;;;;;;11.57;8.03;;;7.00;99.90;;;;;;5002057;28;20471;-70
2022/02/05 11:50:13;;;;;;;9.83;6.40;;;7.00;99.90;;;;;;5009380;28;20452;-69
2022/02/05 11:52:40;;;;;;;5.30;4.20;;;6.90;99.90;;;;;;5003274;28;20658;-69
2022/02/05 11:55:05;;;;;;;8.23;4.50;;;6.90;99.90;;;;;;4994038;28;20422;-69
2022/02/05 11:57:46;;;;;;;6.57;4.43;;;6.90;99.90;;;;;;4986607;28;20602;-69
2022/02/05 12:00:19;;;;;;;9.73;4.60;;;6.90;99.90;;;;;;4976574;28;20611;-69
2022/02/05 12:02:56;;;;;;;9.73;5.80;;;6.80;99.90;;;;;;4992135;28;20464;-70
2022/02/05 12:05:26;;;;;;;5.17;4.33;;;6.70;99.90;;;;;;5000188;28;20464;-70
2022/02/05 12:08:05;;;;;;;13.83;6.50;;;6.70;99.90;;;;;;5008236;28;20456;-69
2022/02/05 12:10:50;;;;;;;7.93;5.40;;;6.70;99.90;;;;;;5006153;28;20534;-69
2022/02/05 12:13:21;;;;;;;5.43;4.40;;;6.60;99.90;;;;;;4994925;28;20457;-69
2022/02/05 12:15:49;;;;;;;8.60;4.67;;;6.60;99.90;;;;;;5002767;28;20448;-69
2022/02/05 12:18:48;;;;;;;6.73;4.57;;;6.60;99.90;;;;;;5000872;28;20454;-70
2022/02/05 12:26:17;;;;;;;11.07;3.87;;;6.60;99.90;;;;;;4987900;28;20456;-69
2022/02/05 12:28:45;;;;;;;11.00;5.47;;;6.60;99.90;;;;;;4986003;28;20450;-70
2022/02/05 12:31:34;;;;;;;12.77;8.37;;;6.60;99.90;;;;;;4984548;28;20518;-68
2022/02/05 12:34:00;;;;;;;16.23;10.03;;;6.70;99.90;;;;;;4975840;28;20484;-70
2022/02/05 12:36:44;;;;;;;22.10;11.77;;;6.80;99.90;;;;;;4984664;28;20489;-69
2022/02/05 12:39:12;;;;;;;32.97;15.43;;;6.80;99.90;;;;;;4972061;28;20636;-70
2022/02/05 12:41:46;;;;;;;17.70;10.90;;;6.90;99.90;;;;;;4988395;28;20461;-69
2022/02/05 12:44:11;;;;;;;15.00;7.67;;;6.80;99.90;;;;;;4990187;28;20461;-69
2022/02/05 12:46:43;;;;;;;11.13;4.00;;;6.80;99.90;;;;;;4988199;28;20464;-69
2022/02/05 12:49:36;;;;;;;5.00;3.50;;;6.80;99.90;;;;;;4969559;28;20714;-70
2022/02/05 12:51:59;;;;;;;9.10;3.70;;;6.80;99.90;;;;;;4970063;28;20492;-69
2022/02/05 12:54:27;;;;;;;9.20;3.07;;;6.80;99.90;;;;;;4963440;28;20476;-69
2022/02/05 12:56:55;;;;;;;9.60;3.67;;;6.80;99.90;;;;;;4979346;28;20432;-70
2022/02/05 12:59:28;;;;;;;3.90;3.30;;;6.80;99.90;;;;;;4988777;28;21025;-69
2022/02/05 13:01:57;;;;;;;7.70;4.80;;;6.80;99.90;;;;;;4965002;28;20544;-69
2022/02/05 13:04:24;;;;;;;7.57;5.70;;;6.80;99.90;;;;;;4985500;28;20474;-69
2022/02/05 13:07:06;;;;;;;6.70;5.30;;;6.80;99.90;;;;;;4985160;28;20457;-69
2022/02/05 13:09:44;;;;;;;4.47;3.40;;;6.80;99.90;;;;;;4956691;28;20517;-70
2022/02/05 13:12:11;;;;;;;4.97;3.30;;;6.80;99.90;;;;;;4978563;28;21029;-69
2022/02/05 13:14:44;;;;;;;4.50;3.20;;;6.70;99.90;;;;;;4973514;28;20461;-70
2022/02/05 13:17:24;;;;;;;5.53;4.63;;;6.70;99.90;;;;;;4987901;28;20583;-69
2022/02/05 13:20:12;;;;;;;6.20;3.60;;;6.70;99.90;;;;;;4982307;28;20457;-69
2022/02/05 13:36:15;;;;;;;6.20;5.33;;;6.50;99.90;;;;;;4991816;28;20453;-68
2022/02/05 13:41:56;;;;;;;5.57;4.30;;;6.50;99.90;;;;;;4980746;28;20453;-69
2022/02/05 13:44:25;;;;;;;4.50;3.90;;;6.50;99.90;;;;;;5005432;28;20451;-69
2022/02/05 13:47:06;;;;;;;5.27;3.77;;;6.50;99.90;;;;;;5009056;28;20510;-69
2022/02/05 13:49:33;;;;;;;3.80;3.40;;;6.50;99.90;;;;;;4992181;28;20448;-70
2022/02/05 13:52:31;;;;;;;5.20;3.60;;;6.60;99.90;;;;;;4991961;28;20601;-69
2022/02/05 13:54:57;;;;;;;3.50;3.20;;;6.60;99.90;;;;;;4991851;28;20433;-69
2022/02/05 13:57:23;;;;;;;4.00;3.60;;;6.70;99.90;;;;;;5008253;28;20460;-69
2022/02/05 13:59:56;;;;;;;6.97;3.10;;;6.70;99.90;;;;;;4989163;28;20230;-70
2022/02/05 14:02:22;;;;;;;5.40;2.43;;;6.70;99.90;;;;;;4991025;28;20280;-69
2022/02/05 14:05:11;;;;;;;3.47;3.17;;;6.70;99.90;;;;;;4972331;28;20820;-69
2022/02/05 14:07:47;;;;;;;3.10;2.27;;;6.60;99.90;;;;;;4981865;28;20231;-70
2022/02/05 14:10:18;;;;;;;4.53;2.30;;;6.60;99.90;;;;;;4979558;28;20896;-70
2022/02/05 14:13:02;;;;;;;3.90;2.10;;;6.60;99.90;;;;;;4983547;28;20511;-70
2022/02/05 14:15:29;;;;;;;4.93;2.37;;;6.70;99.90;;;;;;4979198;28;21003;-70
2022/02/05 14:18:11;;;;;;;2.60;2.40;;;6.70;99.90;;;;;;4980221;28;20458;-70
2022/02/05 14:20:52;;;;;;;5.17;2.33;;;6.70;99.90;;;;;;4981470;28;20463;-70
2022/02/05 14:23:19;;;;;;;3.40;2.80;;;6.70;99.90;;;;;;4978135;28;20462;-69
2022/02/05 14:26:03;;;;;;;2.17;1.97;;;6.70;99.90;;;;;;4990776;28;20543;-69
2022/02/05 14:28:43;;;;;;;4.50;2.30;;;6.70;99.90;;;;;;4989469;28;20453;-69
2022/02/05 14:31:14;;;;;;;4.50;2.60;;;6.60;99.90;;;;;;4984803;28;20473;-69
2022/02/05 14:40:23;;;;;;;;;;;;;;;;;;;;;
2022/02/05 14:42:08;;;;;;;8.07;3.50;;;6.50;99.90;;;;;;4988189;28;21026;-69
2022/02/05 14:44:35;;;;;;;4.67;2.70;;;6.40;99.90;;;;;;4965244;28;20481;-70
2022/02/05 14:47:01;;;;;;;3.10;2.90;;;6.40;99.90;;;;;;4970418;28;20482;-69
2022/02/05 14:49:27;;;;;;;3.43;2.87;;;6.50;99.90;;;;;;4989017;28;20465;-69
2022/02/05 14:51:53;;;;;;;4.10;3.80;;;6.50;99.90;;;;;;4997180;28;20459;-69
2022/02/05 14:54:19;;;;;;;15.23;7.63;;;6.50;99.90;;;;;;4979932;28;20698;-69
2022/02/05 14:56:45;;;;;;;22.83;12.07;;;6.50;99.90;;;;;;4964621;28;20218;-69
2022/02/05 14:59:11;;;;;;;23.00;15.83;;;6.50;99.90;;;;;;4988940;28;20272;-68
2022/02/05 15:01:37;;;;;;;36.27;21.60;;;6.50;99.90;;;;;;4989635;28;20458;-69
2022/02/05 15:04:04;;;;;;;29.50;18.00;;;6.60;99.90;;;;;;5007636;28;20468;-69
2022/02/05 15:06:32;;;;;;;16.37;14.60;;;6.50;99.90;;;;;;4990696;28;20490;-69
2022/02/05 15:09:00;;;;;;;40.23;22.33;;;6.50;99.90;;;;;;4990647;28;20491;-69
2022/02/05 15:11:27;;;;;;;33.63;23.20;;;6.40;99.90;;;;;;4990278;28;20477;-70
2022/02/05 15:13:58;;;;;;;22.30;15.73;;;6.40;99.90;;;;;;4989534;28;20444;-69
2022/02/05 15:16:25;;;;;;;8.90;8.07;;;6.30;99.90;;;;;;4975876;28;20511;-69
2022/02/05 15:18:53;;;;;;;4.67;4.10;;;6.30;99.90;;;;;;4971957;28;20454;-70
2022/02/05 15:21:27;;;;;;;3.93;3.53;;;6.30;99.90;;;;;;4992640;28;20461;-69
2022/02/05 15:23:54;;;;;;;3.20;2.57;;;6.30;99.90;;;;;;4989579;28;20468;-69
2022/02/05 15:26:20;;;;;;;4.47;3.10;;;6.30;99.90;;;;;;4990275;28;20453;-69
2022/02/05 15:28:49;;;;;;;5.00;2.60;;;6.20;99.90;;;;;;4991242;28;20969;-69
2022/02/05 15:31:16;;;;;;;7.47;3.40;;;6.10;99.90;;;;;;5002400;28;20237;-69
2022/02/05 15:33:44;;;;;;;2.83;2.50;;;6.10;99.90;;;;;;4996645;28;20549;-69
2022/02/05 15:36:18;;;;;;;3.80;2.10;;;6.10;99.90;;;;;;5005659;28;20464;-69
2022/02/05 15:39:04;;;;;;;5.73;2.53;;;6.10;99.90;;;;;;4986591;28;20461;-69
2022/02/05 15:44:14;;;;;;;3.83;2.63;;;6.10;99.90;;;;;;4989461;28;20469;-69
2022/02/05 15:46:39;;;;;;;5.00;2.50;;;6.00;99.90;;;;;;4988932;28;20460;-69
2022/02/05 15:49:05;;;;;;;1.90;1.80;;;6.00;99.90;;;;;;4988295;28;20221;-69
2022/02/05 15:51:32;;;;;;;1.90;1.80;;;6.00;99.90;;;;;;4985759;28;20245;-69
2022/02/05 15:54:02;;;;;;;2.10;1.90;;;5.90;99.90;;;;;;4970117;28;20246;-69
2022/02/05 15:59:00;;;;;;;4.93;2.73;;;5.80;99.90;;;;;;4981415;28;20464;-69
2022/02/05 16:01:25;;;;;;;5.80;4.83;;;5.80;99.90;;;;;;4982312;28;20465;-69
2022/02/05 16:03:51;;;;;;;5.80;4.00;;;5.80;99.90;;;;;;4984963;28;20462;-69
2022/02/05 16:06:17;;;;;;;4.10;3.37;;;5.70;99.90;;;;;;4975994;28;20310;-69
2022/02/05 16:08:43;;;;;;;4.33;2.70;;;5.60;99.90;;;;;;4994843;28;20588;-68
2022/02/05 16:11:09;;;;;;;4.63;2.30;;;5.60;99.90;;;;;;4988555;28;20524;-69
2022/02/05 16:13:34;;;;;;;2.77;2.37;;;5.60;99.90;;;;;;4988214;28;20234;-68
2022/02/05 16:16:00;;;;;;;2.20;2.00;;;5.50;99.90;;;;;;4989140;28;20260;-69
2022/02/05 16:18:26;;;;;;;12.87;3.17;;;5.50;99.90;;;;;;4983236;28;20218;-69
2022/02/05 16:20:52;;;;;;;3.37;1.70;;;5.40;99.90;;;;;;4985377;28;20214;-69
2022/02/05 16:23:18;;;;;;;3.93;1.80;;;5.40;99.90;;;;;;4982174;28;20258;-69
2022/02/05 16:25:44;;;;;;;2.53;2.13;;;5.40;99.90;;;;;;4987925;28;20453;-69
2022/02/05 16:28:10;;;;;;;4.50;2.00;;;5.40;99.90;;;;;;4989559;28;20222;-69
2022/02/05 16:30:39;;;;;;;2.50;1.97;;;5.30;99.90;;;;;;4990396;28;20738;-69
2022/02/05 16:33:12;;;;;;;2.00;1.53;;;5.30;99.90;;;;;;4981180;28;20262;-70
2022/02/05 16:35:45;;;;;;;2.63;1.70;;;5.20;99.90;;;;;;4977429;28;20454;-70